Time;durP1;ratioP1;P1;durP2;ratioP2;P2;SDS_P1;SDS_P2;PMS_P1;PMS_P2;Temp;Humidity;BMP_temperature;BMP_pressure;BME280_temperature;BME280_humidity;BME280_pressure;Samples;Min_cycle;Max_cycle;Signal;HPM_P1;HPM_P2
2022/07/31 00:01:33;;;;;;;4.53;2.53;;;;;;;18.64;59.58;100588.88;5119331;28;20490;-63
2022/07/31 00:04:01;;;;;;;4.43;3.03;;;;;;;18.61;60.29;100586.56;5119898;28;20476;-63
2022/07/31 00:06:28;;;;;;;3.00;2.63;;;;;;;18.60;60.05;100574.03;5119350;28;20536;-63
2022/07/31 00:08:54;;;;;;;3.03;2.27;;;;;;;18.51;60.20;100581.41;5119098;28;20474;-64
2022/07/31 00:11:21;;;;;;;4.03;2.70;;;;;;;18.49;60.16;100582.59;5118949;28;20502;-64
2022/07/31 00:13:48;;;;;;;4.00;2.53;;;;;;;18.36;59.72;100581.34;5118306;28;20442;-65
2022/07/31 00:16:15;;;;;;;3.90;2.47;;;;;;;18.30;60.31;100578.53;5118617;28;20478;-64
2022/07/31 00:18:42;;;;;;;3.20;2.43;;;;;;;18.28;60.74;100575.19;5118871;28;20442;-64
2022/07/31 00:21:12;;;;;;;4.50;2.87;;;;;;;18.33;61.54;100586.31;5118705;28;20519;-64
2022/07/31 00:23:40;;;;;;;9.03;2.33;;;;;;;18.32;61.41;100574.66;5119534;28;20513;-64
2022/07/31 00:26:07;;;;;;;5.10;2.97;;;;;;;18.37;61.29;100574.09;5118013;28;20493;-64
2022/07/31 00:28:34;;;;;;;3.17;2.87;;;;;;;18.40;61.41;100571.88;5117956;28;20484;-63
2022/07/31 00:31:00;;;;;;;5.03;3.10;;;;;;;18.44;62.28;100562.34;5118620;28;20478;-63
2022/07/31 00:33:27;;;;;;;5.63;3.53;;;;;;;18.48;61.77;100556.56;5119133;28;20449;-63
2022/07/31 00:35:54;;;;;;;4.10;3.70;;;;;;;18.52;61.99;100560.56;5118291;28;20499;-64
2022/07/31 00:38:23;;;;;;;3.87;3.50;;;;;;;18.56;61.82;100549.19;5118323;28;20470;-64
2022/07/31 00:40:50;;;;;;;6.13;3.27;;;;;;;18.49;62.48;100556.38;5118141;28;20470;-64
2022/07/31 00:43:18;;;;;;;4.63;3.30;;;;;;;18.42;62.76;100550.88;5117850;28;20450;-64
2022/07/31 00:45:45;;;;;;;4.90;3.70;;;;;;;18.34;63.10;100553.63;5118422;28;21021;-64
2022/07/31 00:48:12;;;;;;;4.60;4.20;;;;;;;18.29;63.91;100550.66;5117822;28;20458;-64
2022/07/31 00:50:39;;;;;;;4.43;4.00;;;;;;;18.22;64.47;100549.69;5117793;28;20535;-64
2022/07/31 00:53:06;;;;;;;6.77;4.20;;;;;;;18.17;64.58;100555.66;5116810;28;20439;-64
2022/07/31 00:55:34;;;;;;;5.77;4.63;;;;;;;18.10;65.07;100557.41;5118295;28;20462;-63
2022/07/31 00:58:01;;;;;;;5.30;4.03;;;;;;;18.00;65.44;100557.69;5106872;28;20430;-63
2022/07/31 01:00:27;;;;;;;6.00;4.40;;;;;;;17.93;66.22;100556.69;5118246;28;20515;-63
2022/07/31 01:02:54;;;;;;;7.43;3.87;;;;;;;17.88;66.44;100551.03;5118381;28;20450;-64
2022/07/31 01:05:21;;;;;;;4.87;3.80;;;;;;;17.85;66.88;100554.03;5118141;28;20442;-63
2022/07/31 01:07:48;;;;;;;4.83;4.40;;;;;;;17.80;67.30;100549.16;5118732;28;20879;-64
2022/07/31 01:10:24;;;;;;;7.70;5.20;;;;;;;17.70;67.62;100543.16;5118029;28;20446;-64
2022/07/31 01:12:55;;;;;;;6.30;4.50;;;;;;;17.63;68.02;100551.13;5118577;28;20430;-64
2022/07/31 01:15:23;;;;;;;4.30;3.87;;;;;;;17.63;68.37;100548.44;5117606;28;20438;-64
2022/07/31 01:17:51;;;;;;;8.00;4.50;;;;;;;17.60;68.95;100548.81;5118347;28;20499;-64
2022/07/31 01:20:18;;;;;;;5.63;5.03;;;;;;;17.59;69.20;100555.22;5117471;28;20454;-64
2022/07/31 01:22:57;;;;;;;5.73;4.60;;;;;;;17.47;69.69;100552.09;5118756;28;20449;-64
2022/07/31 01:25:35;;;;;;;6.57;4.97;;;;;;;17.37;70.03;100547.94;5117551;28;20485;-64
2022/07/31 01:28:09;;;;;;;6.77;5.07;;;;;;;17.29;70.21;100546.09;5117925;28;20507;-61
2022/07/31 01:30:44;;;;;;;6.00;4.67;;;;;;;17.26;70.66;100550.03;5116374;28;20503;-61
2022/07/31 01:33:14;;;;;;;7.00;4.57;;;;;;;17.33;70.66;100544.75;5118139;28;21042;-61
2022/07/31 01:35:44;;;;;;;5.17;4.47;;;;;;;17.21;71.11;100541.59;5118005;28;20462;-61
2022/07/31 01:38:14;;;;;;;6.17;4.47;;;;;;;17.17;71.35;100537.59;5118215;28;20466;-61
2022/07/31 01:40:43;;;;;;;6.37;4.33;;;;;;;17.18;71.54;100539.25;5117001;28;20462;-61
2022/07/31 01:43:13;;;;;;;4.77;4.07;;;;;;;17.11;71.85;100540.97;5117395;28;20477;-61
2022/07/31 01:45:43;;;;;;;10.13;4.90;;;;;;;17.05;72.16;100539.81;5117661;28;20526;-61
2022/07/31 01:48:14;;;;;;;5.33;4.70;;;;;;;17.00;72.83;100531.41;5117452;28;20531;-62
2022/07/31 01:50:42;;;;;;;6.03;4.97;;;;;;;16.99;72.95;100534.28;5103786;28;20466;-61
2022/07/31 01:53:09;;;;;;;4.83;4.33;;;;;;;16.97;72.97;100531.75;5118216;28;20450;-61
2022/07/31 01:55:36;;;;;;;7.23;5.10;;;;;;;16.97;73.59;100525.53;5119620;28;20473;-61
2022/07/31 01:58:04;;;;;;;5.20;4.73;;;;;;;16.94;73.10;100527.56;5121205;28;20438;-61
2022/07/31 02:00:30;;;;;;;6.57;4.47;;;;;;;16.86;73.30;100527.59;5120645;28;21072;-61
2022/07/31 02:02:59;;;;;;;6.10;4.80;;;;;;;16.82;73.55;100522.66;5121853;28;20473;-61
2022/07/31 02:05:28;;;;;;;4.80;4.30;;;;;;;16.79;73.63;100521.16;5121330;28;20451;-61
2022/07/31 02:07:55;;;;;;;5.40;4.33;;;;;;;16.78;73.68;100519.47;5122333;28;20434;-61
2022/07/31 02:10:22;;;;;;;5.20;4.70;;;;;;;16.79;73.55;100531.97;5121194;28;20503;-61
2022/07/31 02:12:49;;;;;;;11.53;4.53;;;;;;;16.76;73.80;100527.75;5121697;28;20471;-61
2022/07/31 02:15:17;;;;;;;5.60;4.40;;;;;;;16.70;74.19;100520.34;5119783;28;20453;-61
2022/07/31 02:17:45;;;;;;;7.40;4.83;;;;;;;16.73;74.25;100508.34;5119360;28;20439;-61
2022/07/31 02:20:14;;;;;;;6.43;4.80;;;;;;;16.69;74.41;100524.06;5121212;28;21553;-61
2022/07/31 02:22:40;;;;;;;5.30;4.63;;;;;;;16.68;74.84;100508.91;5121778;28;20935;-61
2022/07/31 02:25:08;;;;;;;5.30;4.70;;;;;;;16.69;74.76;100515.97;5120917;28;20499;-61
2022/07/31 02:27:37;;;;;;;6.73;5.10;;;;;;;16.65;75.13;100511.09;5121437;28;20438;-61
2022/07/31 02:30:04;;;;;;;5.40;4.70;;;;;;;16.69;74.99;100507.03;5120383;28;20543;-61
2022/07/31 02:32:32;;;;;;;4.97;4.50;;;;;;;16.56;75.22;100504.88;5120538;28;20466;-62
2022/07/31 02:35:01;;;;;;;8.70;4.93;;;;;;;16.53;76.14;100506.06;5106634;28;20481;-62
2022/07/31 02:37:29;;;;;;;5.70;5.10;;;;;;;16.56;76.48;100505.72;5120666;28;20530;-62
2022/07/31 02:39:57;;;;;;;5.63;4.50;;;;;;;16.60;76.17;100505.38;5120758;28;20453;-62
2022/07/31 02:42:24;;;;;;;6.43;4.37;;;;;;;16.61;75.88;100498.94;5120162;28;21050;-62
2022/07/31 02:44:51;;;;;;;5.30;4.80;;;;;;;16.62;75.70;100498.78;5104356;28;20473;-63
2022/07/31 02:47:18;;;;;;;7.83;5.20;;;;;;;16.68;75.80;100492.69;5119100;28;20542;-62
2022/07/31 02:49:45;;;;;;;4.30;3.90;;;;;;;16.68;76.22;100495.41;5120869;28;20505;-62
2022/07/31 02:52:12;;;;;;;5.97;4.50;;;;;;;16.61;76.65;100493.56;5121156;28;20536;-63
2022/07/31 02:54:43;;;;;;;4.47;4.07;;;;;;;16.54;76.81;100496.97;5121329;28;20449;-63
2022/07/31 02:57:10;;;;;;;5.00;4.50;;;;;;;16.50;76.52;100489.38;5120761;28;20844;-62
2022/07/31 02:59:37;;;;;;;5.80;4.43;;;;;;;16.46;76.58;100485.34;5120660;28;20982;-62
2022/07/31 03:02:05;;;;;;;4.60;4.10;;;;;;;16.38;76.84;100491.59;5120615;28;20478;-63
2022/07/31 03:04:31;;;;;;;5.20;4.20;;;;;;;16.33;76.96;100486.72;5121580;28;20446;-62
2022/07/31 03:06:59;;;;;;;5.40;4.13;;;;;;;16.36;77.09;100483.66;5120067;28;20470;-62
2022/07/31 03:09:26;;;;;;;6.10;4.87;;;;;;;16.44;77.09;100487.34;5120765;28;20458;-62
2022/07/31 03:11:54;;;;;;;6.50;5.00;;;;;;;16.38;77.97;100488.91;5120557;28;20474;-63
2022/07/31 03:14:21;;;;;;;5.57;4.90;;;;;;;16.29;79.25;100493.47;5104285;28;20450;-63
2022/07/31 03:16:49;;;;;;;5.40;4.90;;;;;;;16.35;79.47;100502.72;5119867;28;21010;-63
2022/07/31 03:19:16;;;;;;;5.27;4.77;;;;;;;16.31;80.26;100496.84;5121289;28;20442;-63
2022/07/31 03:21:42;;;;;;;4.90;4.50;;;;;;;16.28;81.19;100494.47;5120506;28;20498;-63
2022/07/31 03:24:11;;;;;;;5.57;5.07;;;;;;;16.22;81.03;100495.19;5120806;28;20477;-62
2022/07/31 03:26:38;;;;;;;5.47;5.00;;;;;;;16.22;80.90;100486.25;5120416;28;20477;-63
2022/07/31 03:29:06;;;;;;;5.27;4.70;;;;;;;16.21;80.96;100484.56;5119254;28;21013;-63
2022/07/31 03:31:33;;;;;;;5.13;4.73;;;;;;;16.28;80.99;100490.94;5119281;28;20920;-63
2022/07/31 03:34:00;;;;;;;5.50;3.97;;;;;;;16.24;80.85;100482.34;5120580;28;20514;-63
2022/07/31 03:36:28;;;;;;;4.73;4.20;;;;;;;16.41;79.51;100485.03;5119323;28;20538;-63
2022/07/31 03:38:54;;;;;;;7.33;4.63;;;;;;;16.30;78.95;100483.50;5120040;28;21232;-63
2022/07/31 03:41:21;;;;;;;6.40;5.30;;;;;;;16.25;78.37;100484.06;5119305;28;20473;-63
2022/07/31 03:43:48;;;;;;;13.07;5.37;;;;;;;16.29;77.48;100479.97;5119409;28;20454;-63
2022/07/31 03:46:19;;;;;;;4.90;4.20;;;;;;;16.35;76.48;100478.44;5118687;28;20496;-63
2022/07/31 03:48:47;;;;;;;5.30;4.63;;;;;;;16.28;76.59;100485.56;5119132;28;20466;-63
2022/07/31 03:51:13;;;;;;;6.23;5.63;;;;;;;16.31;75.58;100488.75;5119448;28;20454;-63
2022/07/31 03:53:40;;;;;;;6.57;5.60;;;;;;;16.41;75.36;100485.03;5119641;28;20438;-63
2022/07/31 03:56:07;;;;;;;5.20;4.80;;;;;;;16.50;75.14;100484.81;5118658;28;20489;-63
2022/07/31 03:58:34;;;;;;;5.17;4.67;;;;;;;16.54;74.46;100488.88;5118809;28;20537;-63
2022/07/31 04:01:01;;;;;;;5.90;5.30;;;;;;;16.60;74.87;100486.50;5119251;28;20512;-63
2022/07/31 04:03:32;;;;;;;6.93;5.60;;;;;;;16.59;75.12;100479.41;5119795;28;20438;-63
2022/07/31 04:05:59;;;;;;;5.37;4.87;;;;;;;16.62;74.42;100487.16;5118204;28;20482;-63
2022/07/31 04:08:25;;;;;;;7.50;5.40;;;;;;;16.67;73.54;100487.47;5119373;28;20449;-63
2022/07/31 04:10:52;;;;;;;5.83;5.17;;;;;;;16.70;73.57;100496.06;5118930;28;20466;-64
2022/07/31 04:13:19;;;;;;;5.70;5.10;;;;;;;16.68;74.53;100492.69;5119215;28;20457;-63
2022/07/31 04:15:46;;;;;;;5.27;4.80;;;;;;;16.71;74.04;100502.28;5118548;28;20482;-62
2022/07/31 04:18:12;;;;;;;5.23;4.73;;;;;;;16.76;73.78;100497.22;5117482;28;22524;-62
2022/07/31 04:20:41;;;;;;;6.50;5.30;;;;;;;16.77;73.65;100501.59;5117870;28;20564;-62
2022/07/31 04:23:08;;;;;;;7.30;5.27;;;;;;;16.76;73.48;100499.91;5119561;28;21360;-62
2022/07/31 04:25:35;;;;;;;6.67;5.40;;;;;;;16.90;72.05;100501.91;5118430;28;20462;-63
2022/07/31 04:28:02;;;;;;;7.17;5.23;;;;;;;16.98;71.97;100492.94;5098973;28;20431;-63
2022/07/31 04:30:29;;;;;;;5.73;5.13;;;;;;;16.96;72.13;100489.56;5113449;28;20466;-63
2022/07/31 04:32:58;;;;;;;5.10;4.53;;;;;;;17.25;71.53;100488.88;5119102;28;20492;-63
2022/07/31 04:35:24;;;;;;;5.87;4.60;;;;;;;17.26;71.11;100481.63;5118321;28;20434;-63
2022/07/31 04:37:53;;;;;;;6.63;5.40;;;;;;;17.52;70.02;100492.09;5119235;28;20524;-63
2022/07/31 04:40:20;;;;;;;5.23;4.70;;;;;;;17.58;70.64;100495.94;5118289;28;20507;-63
2022/07/31 04:42:47;;;;;;;5.77;4.93;;;;;;;17.96;69.44;100499.53;5118643;28;20442;-63
2022/07/31 04:45:14;;;;;;;6.70;4.67;;;;;;;17.85;69.80;100495.38;5117978;28;20442;-63
2022/07/31 04:47:41;;;;;;;5.93;4.90;;;;;;;17.89;70.32;100495.88;5117864;28;20477;-63
2022/07/31 04:50:09;;;;;;;5.03;4.53;;;;;;;17.91;69.97;100487.59;5118082;28;20466;-63
2022/07/31 04:52:35;;;;;;;8.67;5.27;;;;;;;18.15;69.56;100481.94;5118867;28;20446;-63
2022/07/31 04:55:04;;;;;;;6.67;4.53;;;;;;;18.31;68.50;100482.78;5119491;28;20434;-63
2022/07/31 04:57:30;;;;;;;5.57;4.43;;;;;;;18.79;67.14;100478.66;5118517;28;20470;-63
2022/07/31 04:59:57;;;;;;;5.30;4.37;;;;;;;19.42;65.72;100482.75;5118846;28;20442;-63
2022/07/31 05:02:24;;;;;;;4.80;4.40;;;;;;;20.22;62.01;100476.16;5118333;28;20482;-63
2022/07/31 05:04:51;;;;;;;4.83;4.33;;;;;;;19.74;62.27;100478.72;5118846;28;20441;-63
2022/07/31 05:07:17;;;;;;;5.60;4.53;;;;;;;19.09;64.71;100477.81;5119040;28;20470;-63
2022/07/31 05:09:44;;;;;;;6.10;4.93;;;;;;;19.03;65.23;100482.13;5118230;28;20470;-64
2022/07/31 05:12:12;;;;;;;6.27;4.57;;;;;;;18.91;66.32;100473.66;5118277;28;20503;-64
2022/07/31 05:14:40;;;;;;;7.23;5.17;;;;;;;18.62;67.56;100466.38;5118688;28;20493;-64
2022/07/31 05:17:07;;;;;;;4.77;4.37;;;;;;;18.63;67.78;100459.94;5118252;28;21069;-63
2022/07/31 05:19:33;;;;;;;7.17;5.07;;;;;;;18.68;68.44;100468.34;5118796;28;20438;-63
2022/07/31 05:22:00;;;;;;;9.00;4.50;;;;;;;18.62;68.79;100469.06;5118467;28;20478;-64
2022/07/31 05:24:27;;;;;;;5.47;4.80;;;;;;;18.70;68.40;100476.28;5118946;28;20438;-63
2022/07/31 05:26:53;;;;;;;7.43;5.10;;;;;;;18.64;68.60;100472.44;5117678;28;20477;-63
2022/07/31 05:29:21;;;;;;;4.90;4.40;;;;;;;18.57;68.92;100468.78;5118493;28;20481;-64
2022/07/31 05:31:48;;;;;;;7.80;5.57;;;;;;;18.70;68.82;100471.69;5121272;28;20633;-64
2022/07/31 05:34:15;;;;;;;6.83;5.30;;;;;;;18.80;68.30;100465.97;5122730;28;20438;-64
2022/07/31 05:36:42;;;;;;;6.43;5.30;;;;;;;18.93;67.77;100465.34;5120999;28;20942;-63
2022/07/31 05:39:09;;;;;;;6.63;4.80;;;;;;;18.88;67.99;100467.78;5122262;28;20442;-63
2022/07/31 05:41:37;;;;;;;5.77;4.70;;;;;;;18.96;68.37;100470.38;5121915;28;20465;-63
2022/07/31 05:44:04;;;;;;;6.03;4.77;;;;;;;19.15;67.80;100472.47;5121333;28;20464;-64
2022/07/31 05:46:32;;;;;;;6.17;5.23;;;;;;;19.08;68.54;100476.97;5119223;28;20477;-64
2022/07/31 05:48:59;;;;;;;6.27;5.67;;;;;;;19.29;68.03;100475.34;5122315;28;20456;-64
2022/07/31 05:51:26;;;;;;;5.60;4.97;;;;;;;19.50;66.70;100474.50;5120971;28;20477;-63
2022/07/31 05:53:52;;;;;;;4.73;4.10;;;;;;;19.61;66.93;100473.97;5121743;28;20466;-63
2022/07/31 05:56:19;;;;;;;5.50;4.73;;;;;;;19.51;67.60;100476.16;5121124;28;20507;-64
2022/07/31 05:58:46;;;;;;;5.00;4.60;;;;;;;19.85;66.30;100475.47;5120890;28;20510;-64
2022/07/31 06:01:13;;;;;;;5.97;5.13;;;;;;;19.87;66.34;100473.38;5121328;28;20478;-64
2022/07/31 06:03:41;;;;;;;8.60;4.60;;;;;;;20.44;64.46;100471.50;5122179;28;20446;-63
2022/07/31 06:06:08;;;;;;;5.33;4.83;;;;;;;20.45;63.46;100458.75;5121134;28;20473;-63
2022/07/31 06:08:35;;;;;;;7.70;5.20;;;;;;;20.55;63.42;100456.50;5121673;28;20453;-63
2022/07/31 06:11:02;;;;;;;6.00;4.67;;;;;;;20.79;62.46;100460.63;5121082;28;20498;-64
2022/07/31 06:13:29;;;;;;;6.13;4.67;;;;;;;20.89;62.94;100454.81;5121546;28;20494;-65
2022/07/31 06:15:56;;;;;;;5.43;4.90;;;;;;;21.45;60.93;100454.53;5120579;28;20533;-63
2022/07/31 06:18:23;;;;;;;6.53;4.80;;;;;;;21.15;61.00;100445.91;5121397;28;20456;-63
2022/07/31 06:20:51;;;;;;;6.40;5.00;;;;;;;21.58;60.39;100452.91;5120248;28;20542;-64
2022/07/31 06:23:18;;;;;;;5.00;4.30;;;;;;;21.65;60.89;100440.16;5121983;28;20438;-64
2022/07/31 06:25:44;;;;;;;9.80;4.50;;;;;;;21.74;59.97;100446.22;5119903;28;20534;-64
2022/07/31 06:28:11;;;;;;;7.13;5.40;;;;;;;21.21;60.69;100447.81;5120992;28;20454;-64
2022/07/31 06:30:38;;;;;;;5.37;4.37;;;;;;;21.36;61.14;100444.91;5120279;28;20485;-65
2022/07/31 06:33:04;;;;;;;5.80;4.90;;;;;;;21.22;61.92;100441.31;5120654;28;20688;-64
2022/07/31 06:35:31;;;;;;;7.10;5.00;;;;;;;21.32;62.40;100437.34;5120187;28;20462;-64
2022/07/31 06:38:00;;;;;;;6.83;5.37;;;;;;;21.18;63.42;100436.47;5121475;28;20556;-64
2022/07/31 06:40:26;;;;;;;10.47;5.43;;;;;;;21.18;63.14;100436.47;5120764;28;20466;-65
2022/07/31 06:42:54;;;;;;;8.93;5.23;;;;;;;21.08;62.79;100436.06;5120375;28;20454;-64
2022/07/31 06:45:21;;;;;;;5.70;5.10;;;;;;;21.27;62.98;100434.44;5120077;28;20481;-64
2022/07/31 06:47:48;;;;;;;5.83;4.90;;;;;;;21.18;62.40;100439.19;5119951;28;20438;-64
2022/07/31 06:50:15;;;;;;;8.37;5.60;;;;;;;21.30;62.38;100434.84;5120159;28;20499;-64
2022/07/31 06:52:42;;;;;;;7.30;4.60;;;;;;;21.15;62.48;100442.34;5121177;28;20456;-65
2022/07/31 06:55:10;;;;;;;10.07;5.20;;;;;;;21.37;61.72;100435.69;5119835;28;20446;-63
2022/07/31 06:57:37;;;;;;;6.53;5.30;;;;;;;21.37;61.28;100430.25;5121003;28;20461;-64
2022/07/31 07:00:06;;;;;;;6.60;5.60;;;;;;;21.45;62.01;100419.16;5120766;28;20451;-65
2022/07/31 07:02:33;;;;;;;6.70;4.97;;;;;;;21.18;62.35;100418.31;5119362;28;20458;-65
2022/07/31 07:05:00;;;;;;;5.17;4.60;;;;;;;21.52;61.97;100419.19;5120142;28;20457;-65
2022/07/31 07:07:27;;;;;;;7.90;4.90;;;;;;;21.49;61.84;100425.09;5119005;28;20862;-66
2022/07/31 07:09:54;;;;;;;6.17;5.20;;;;;;;21.66;61.34;100428.19;5120597;28;20597;-65
2022/07/31 07:12:24;;;;;;;11.73;5.63;;;;;;;21.62;61.65;100418.78;5119846;28;21117;-65
2022/07/31 07:14:50;;;;;;;6.90;5.00;;;;;;;21.89;61.13;100419.63;5119552;28;20497;-65
2022/07/31 07:17:17;;;;;;;5.60;4.70;;;;;;;22.09;60.74;100418.75;5120083;28;20513;-65
2022/07/31 07:19:44;;;;;;;5.37;4.87;;;;;;;22.37;59.60;100418.50;5120793;28;20491;-64
2022/07/31 07:22:11;;;;;;;5.33;4.50;;;;;;;22.43;59.49;100422.25;5106682;28;21084;-64
2022/07/31 07:24:38;;;;;;;5.10;4.50;;;;;;;22.24;59.94;100416.63;5112216;27;20511;-64
2022/07/31 07:27:05;;;;;;;5.80;4.53;;;;;;;22.63;59.68;100420.28;5127810;27;20482;-64
2022/07/31 07:29:33;;;;;;;6.23;4.97;;;;;;;22.61;58.88;100416.94;5113908;28;20507;-71
2022/07/31 07:32:00;;;;;;;7.70;4.87;;;;;;;22.84;58.23;100412.88;5113868;28;20481;-72
2022/07/31 07:34:27;;;;;;;7.07;4.50;;;;;;;23.25;57.33;100419.81;5105190;27;20478;-73
2022/07/31 07:36:54;;;;;;;5.27;4.27;;;;;;;24.10;55.29;100413.03;5111004;27;20476;-72
2022/07/31 07:39:21;;;;;;;5.97;5.37;;;;;;;24.12;53.75;100413.63;5120477;28;20438;-73
2022/07/31 07:41:47;;;;;;;9.90;4.60;;;;;;;24.10;54.02;100408.41;5122570;27;20470;-73
2022/07/31 07:44:14;;;;;;;5.03;4.10;;;;;;;24.91;51.85;100416.47;5119852;28;20495;-73
2022/07/31 07:46:43;;;;;;;6.10;4.17;;;;;;;25.39;50.55;100407.41;5110432;27;20470;-73
2022/07/31 07:49:10;;;;;;;7.00;4.43;;;;;;;25.44;48.27;100410.25;5127519;27;20454;-74
2022/07/31 07:51:36;;;;;;;4.20;3.80;;;;;;;25.46;48.82;100413.59;5123018;27;20493;-75
2022/07/31 07:54:03;;;;;;;4.87;3.50;;;;;;;24.73;50.89;100415.44;5126526;27;20529;-74
2022/07/31 07:56:30;;;;;;;6.13;4.13;;;;;;;25.00;50.73;100409.66;5126319;27;22482;-74
2022/07/31 07:58:57;;;;;;;7.20;3.53;;;;;;;25.25;49.12;100401.28;5119888;27;20477;-74
2022/07/31 08:01:25;;;;;;;4.40;3.70;;;;;;;25.08;50.13;100403.00;5119080;28;20534;-73
2022/07/31 08:03:53;;;;;;;3.77;3.47;;;;;;;24.68;51.36;100392.63;5134179;27;20445;-74
2022/07/31 08:06:20;;;;;;;5.30;3.90;;;;;;;24.87;50.34;100390.69;5101070;28;20497;-74
2022/07/31 08:08:47;;;;;;;5.03;3.50;;;;;;;25.35;49.52;100378.84;5118075;28;20463;-74
2022/07/31 08:11:14;;;;;;;4.63;3.10;;;;;;;25.69;48.47;100379.94;5099118;28;20493;-73
2022/07/31 08:13:41;;;;;;;7.57;3.97;;;;;;;26.20;48.49;100371.25;5099804;28;20458;-74
2022/07/31 08:16:07;;;;;;;3.70;3.40;;;;;;;26.24;48.85;100370.50;5118559;28;20474;-75
2022/07/31 08:18:34;;;;;;;3.30;2.93;;;;;;;26.45;45.53;100373.69;5135595;27;20433;-75
2022/07/31 08:21:02;;;;;;;6.67;3.30;;;;;;;27.44;44.53;100380.75;5120906;27;20478;-74
2022/07/31 08:23:29;;;;;;;5.20;2.60;;;;;;;27.53;42.86;100376.53;5119721;28;20446;-73
2022/07/31 08:25:56;;;;;;;4.27;2.83;;;;;;;27.57;43.15;100379.63;5117006;27;21006;-74
2022/07/31 08:28:24;;;;;;;4.47;2.63;;;;;;;27.54;38.50;100372.69;5122019;27;20468;-74
2022/07/31 08:30:51;;;;;;;3.30;2.33;;;;;;;27.02;39.17;100368.22;5122753;27;20558;-74
2022/07/31 08:33:18;;;;;;;6.80;3.00;;;;;;;27.58;38.15;100368.34;5118965;28;20968;-75
2022/07/31 08:35:45;;;;;;;6.13;2.50;;;;;;;28.84;35.60;100371.44;5118015;28;20478;-75
2022/07/31 08:38:15;;;;;;;3.20;2.10;;;;;;;30.18;31.76;100370.59;5107098;28;20478;-75
2022/07/31 08:40:45;;;;;;;3.70;2.47;;;;;;;28.32;35.13;100367.25;5110864;27;20474;-74
2022/07/31 08:43:12;;;;;;;2.77;2.43;;;;;;;27.46;36.77;100375.03;5122760;27;20439;-73
2022/07/31 08:45:40;;;;;;;4.97;2.67;;;;;;;27.41;37.31;100375.78;5120443;27;20477;-72
2022/07/31 08:48:08;;;;;;;4.17;2.47;;;;;;;27.39;38.89;100370.56;5118766;27;20448;-74
2022/07/31 08:50:35;;;;;;;4.50;2.40;;;;;;;27.65;38.04;100372.84;5122596;27;20825;-74
2022/07/31 08:53:06;;;;;;;2.70;2.40;;;;;;;26.85;39.22;100362.69;5121752;27;20442;-73
2022/07/31 08:55:34;;;;;;;3.70;2.97;;;;;;;26.69;39.82;100360.75;5117440;28;20465;-73
2022/07/31 08:58:01;;;;;;;3.00;2.67;;;;;;;26.16;41.43;100353.59;5118738;28;20442;-73
2022/07/31 09:00:28;;;;;;;6.30;3.90;;;;;;;25.66;41.91;100354.94;5115863;28;20462;-72
2022/07/31 09:02:55;;;;;;;4.53;2.70;;;;;;;26.15;41.84;100346.47;5119043;28;20441;-73
2022/07/31 09:05:23;;;;;;;3.83;3.03;;;;;;;26.49;40.52;100344.69;5117665;28;20950;-73
2022/07/31 09:07:50;;;;;;;4.33;3.43;;;;;;;26.61;40.85;100352.88;5119010;28;20510;-73
2022/07/31 09:10:24;;;;;;;6.57;3.00;;;;;;;26.73;40.73;100350.13;5118751;28;20495;-74
2022/07/31 09:12:53;;;;;;;2.87;2.57;;;;;;;27.00;40.30;100353.91;5119498;28;20464;-73
2022/07/31 09:15:21;;;;;;;3.10;2.60;;;;;;;26.70;40.47;100345.97;5118231;28;20450;-65
2022/07/31 09:17:48;;;;;;;4.70;3.10;;;;;;;26.30;41.90;100346.81;5119022;28;20430;-64
2022/07/31 09:20:18;;;;;;;3.00;2.60;;;;;;;26.17;42.29;100352.53;5113030;28;21292;-62
2022/07/31 09:22:46;;;;;;;4.03;3.10;;;;;;;25.75;43.12;100345.28;5127238;28;20450;-63
2022/07/31 09:25:17;;;;;;;5.23;2.97;;;;;;;25.80;43.29;100344.59;5111862;28;20454;-64
2022/07/31 09:27:45;;;;;;;6.43;3.43;;;;;;;25.70;43.07;100346.00;5119100;28;20437;-64
2022/07/31 09:30:13;;;;;;;5.33;3.30;;;;;;;25.36;43.54;100359.44;5117113;28;20485;-64
2022/07/31 09:32:42;;;;;;;7.93;2.83;;;;;;;24.90;44.64;100349.19;5117761;28;20454;-64
2022/07/31 09:35:10;;;;;;;5.90;3.27;;;;;;;25.37;44.35;100349.31;5115243;28;20839;-63
2022/07/31 09:37:38;;;;;;;3.90;2.73;;;;;;;25.97;42.83;100344.69;5116604;28;20511;-73
2022/07/31 09:40:06;;;;;;;5.37;3.30;;;;;;;26.57;41.31;100347.06;5116409;28;20517;-73
2022/07/31 09:42:37;;;;;;;6.93;3.10;;;;;;;25.91;42.47;100338.25;5118151;28;20514;-73
2022/07/31 09:45:05;;;;;;;5.90;3.30;;;;;;;26.36;41.83;100334.84;5111895;28;20655;-73
2022/07/31 09:47:33;;;;;;;4.73;2.50;;;;;;;26.89;41.93;100346.59;5117630;28;20454;-73
2022/07/31 09:50:01;;;;;;;5.70;2.73;;;;;;;26.79;41.41;100347.25;5118559;28;20503;-74
2022/07/31 09:52:30;;;;;;;3.80;2.80;;;;;;;27.11;41.23;100343.94;5118006;28;20539;-74
2022/07/31 09:55:02;;;;;;;4.37;2.70;;;;;;;26.92;40.79;100337.03;5118850;28;20502;-72
2022/07/31 09:57:29;;;;;;;4.47;3.00;;;;;;;27.12;40.75;100342.06;5118338;28;20566;-73
2022/07/31 09:59:55;;;;;;;3.93;2.50;;;;;;;27.00;40.85;100334.72;5115724;28;20465;-74
2022/07/31 10:02:24;;;;;;;3.37;2.40;;;;;;;26.31;41.84;100330.09;5123126;28;20480;-73
2022/07/31 10:04:53;;;;;;;3.17;2.57;;;;;;;25.96;41.84;100335.66;5115059;28;20479;-73
2022/07/31 10:07:24;;;;;;;2.70;2.50;;;;;;;26.23;42.38;100325.00;5118532;27;20481;-74
2022/07/31 10:09:52;;;;;;;2.77;2.47;;;;;;;26.83;40.88;100326.44;5110725;28;20869;-73
2022/07/31 10:12:19;;;;;;;3.23;2.90;;;;;;;27.08;39.73;100324.41;5107162;28;21106;-74
2022/07/31 10:14:47;;;;;;;3.80;2.90;;;;;;;28.19;38.55;100329.13;5117476;28;21015;-73
2022/07/31 10:17:15;;;;;;;3.93;3.00;;;;;;;28.83;37.05;100322.16;5122854;27;20481;-73
2022/07/31 10:19:42;;;;;;;3.73;3.30;;;;;;;28.05;38.00;100322.34;5142678;27;20443;-73
2022/07/31 10:22:11;;;;;;;3.47;2.80;;;;;;;27.90;38.11;100321.03;5138584;27;20473;-73
2022/07/31 10:24:44;;;;;;;7.77;3.40;;;;;;;27.07;39.40;100331.81;5135477;27;20450;-73
2022/07/31 10:27:11;;;;;;;4.00;3.10;;;;;;;26.85;40.45;100329.78;5120547;28;20474;-73
2022/07/31 10:29:39;;;;;;;3.40;3.10;;;;;;;27.44;39.48;100325.84;5120460;28;20544;-73
2022/07/31 10:32:06;;;;;;;3.90;3.00;;;;;;;27.76;38.75;100320.56;5119692;27;20478;-73
2022/07/31 10:34:34;;;;;;;3.23;2.80;;;;;;;27.91;39.86;100314.47;5104566;28;20449;-73
2022/07/31 10:37:05;;;;;;;5.40;3.33;;;;;;;28.06;38.53;100318.53;5117846;28;20506;-73
2022/07/31 10:39:42;;;;;;;11.73;3.00;;;;;;;28.68;37.47;100312.69;5120621;28;20442;-73
2022/07/31 10:42:16;;;;;;;4.73;3.53;;;;;;;28.93;38.03;100309.31;5119291;28;20955;-73
2022/07/31 10:44:46;;;;;;;4.00;3.23;;;;;;;28.94;37.78;100304.66;5120206;28;20450;-73
2022/07/31 10:47:13;;;;;;;5.23;3.33;;;;;;;27.96;38.29;100308.22;5118462;28;20499;-72
2022/07/31 10:49:42;;;;;;;3.53;3.00;;;;;;;27.43;39.40;100321.47;5119885;28;20493;-73
2022/07/31 10:52:08;;;;;;;3.40;3.10;;;;;;;26.93;40.72;100312.09;5118847;28;21142;-73
2022/07/31 10:54:41;;;;;;;4.00;2.97;;;;;;;27.36;40.43;100309.78;5121038;28;20507;-73
2022/07/31 10:57:08;;;;;;;6.20;2.90;;;;;;;27.57;40.47;100305.47;5119259;28;20507;-73
2022/07/31 10:59:35;;;;;;;7.00;2.77;;;;;;;27.82;40.11;100306.91;5120132;28;20458;-73
2022/07/31 11:02:02;;;;;;;3.00;2.67;;;;;;;27.99;39.24;100307.72;5119999;28;20992;-72
2022/07/31 11:04:30;;;;;;;2.60;2.40;;;;;;;27.58;40.80;100302.44;5120342;28;20465;-72
2022/07/31 11:06:58;;;;;;;3.80;2.90;;;;;;;27.56;40.43;100296.38;5120148;28;20482;-72
2022/07/31 11:09:25;;;;;;;2.90;2.60;;;;;;;27.49;41.19;100298.47;5116755;28;20450;-72
2022/07/31 11:11:54;;;;;;;3.33;2.47;;;;;;;27.08;41.14;100297.78;5117540;28;20482;-72
2022/07/31 11:14:31;;;;;;;4.50;2.70;;;;;;;26.60;43.75;100293.66;5115177;28;20482;-72
2022/07/31 11:16:58;;;;;;;2.50;2.30;;;;;;;26.89;43.63;100294.47;5116795;28;20482;-64
2022/07/31 11:19:25;;;;;;;2.80;2.60;;;;;;;27.04;42.94;100297.47;5113485;28;20868;-65
2022/07/31 11:21:56;;;;;;;4.60;3.30;;;;;;;26.83;42.82;100296.28;5116446;28;20474;-64
2022/07/31 11:24:23;;;;;;;4.50;2.80;;;;;;;27.13;42.00;100297.06;5116972;28;20986;-64
2022/07/31 11:26:50;;;;;;;2.67;2.43;;;;;;;26.97;42.56;100294.03;5116511;28;20507;-65